»·PEaware :: WAT234 KBUR-KSLC

WAT234 :: KBUR-KSLC

FLIGHT INFORMATION

Flight Status: Arrived
Operator:
Walker Air Transport
More flights by this operator :: More flights under this callsign
Pilot: Eduardo Elias G. (24838)
Aircraft: BOEING 737-800
(B738)
More flights by this aircraft type
Origin: KBUR Bob Hope-Burbank
United States
Destination: KSLC Salt Lake City Intl
United States
More flights between these airports :: More routes between these airports
Route: +SLAPP1 LAS Q70 BLIPP Q842 WINEN MLF QWENN5
File this flight plan on PilotEdge
Remarks:
Altitude:
(Current/Filed)
37,000ft
Speed:
(Current/Filed)
475kts
Departed: 17-Sep-20 02:09 PM
Arrived: 17-Sep-20 03:30 PM
Distance/Time
Traveled:
498nm/1:21
Distance/Time
To Go:
Arrived

Flight Plot

Page will automatically refresh every two minutes.

Flight plan parsing failed; only flown route is shown


Map Options




Map Legend


Flown Route
Filed Route
Departure Airport
Arrival Airport
Navaid (VOR, NDB)
Fix

Horizontal Profiles

Position Reports

Time Latitude Longitude Heading Altitude Ground
Speed
17-Sep-20 13:27 34.196809 -118.350593 181 729ft 0kts
17-Sep-20 13:28 34.196809 -118.350593 181 729ft 0kts
17-Sep-20 13:29 34.196809 -118.350593 181 729ft 0kts
17-Sep-20 13:30 34.196809 -118.350593 181 729ft 0kts
17-Sep-20 13:31 34.196809 -118.350593 181 729ft 0kts
17-Sep-20 13:32 34.196809 -118.350593 181 729ft 0kts
17-Sep-20 13:33 34.196809 -118.350593 181 729ft 0kts
17-Sep-20 13:34 34.196809 -118.350593 181 729ft 0kts
17-Sep-20 13:35 34.196809 -118.350593 181 729ft 0kts
17-Sep-20 13:36 34.196809 -118.350593 181 729ft 0kts
17-Sep-20 13:37 34.196809 -118.350593 181 729ft 0kts
17-Sep-20 13:38 34.196809 -118.350593 181 729ft 0kts
17-Sep-20 13:39 34.196809 -118.350593 181 729ft 0kts
17-Sep-20 13:40 34.196809 -118.350593 181 729ft 0kts
17-Sep-20 13:41 34.196809 -118.350593 181 729ft 0kts
17-Sep-20 13:42 34.196809 -118.350593 181 729ft 0kts
17-Sep-20 13:43 34.196809 -118.350593 181 729ft 0kts
17-Sep-20 13:44 34.196809 -118.350593 181 729ft 0kts
17-Sep-20 13:45 34.196809 -118.350593 181 729ft 0kts
17-Sep-20 13:46 34.196809 -118.350593 181 729ft 0kts
17-Sep-20 13:47 34.196809 -118.350593 181 729ft 0kts
17-Sep-20 13:48 34.196809 -118.350593 181 729ft 0kts
17-Sep-20 13:49 34.196809 -118.350593 181 729ft 0kts
17-Sep-20 13:50 34.196809 -118.350593 181 729ft 0kts
17-Sep-20 13:51 34.196809 -118.350593 181 729ft 0kts
17-Sep-20 13:52 34.196952 -118.350578 204 729ft 2kts
17-Sep-20 13:53 34.197134 -118.349993 271 729ft 0kts
17-Sep-20 13:54 34.197134 -118.349993 271 729ft 0kts
17-Sep-20 13:55 34.197134 -118.349993 271 729ft 0kts
17-Sep-20 13:56 34.197134 -118.349993 271 729ft 0kts
17-Sep-20 13:57 34.197134 -118.349993 271 729ft 0kts
17-Sep-20 13:58 34.197134 -118.349993 271 729ft 0kts
17-Sep-20 13:59 34.197160 -118.351038 272 729ft 7kts
17-Sep-20 14:00 34.197212 -118.353455 268 729ft 6kts
17-Sep-20 14:01 34.199257 -118.355474 347 729ft 13kts
17-Sep-20 14:02 34.202662 -118.356435 346 729ft 11kts
17-Sep-20 14:03 34.205557 -118.357226 348 729ft 9kts
17-Sep-20 14:04 34.208008 -118.357887 346 729ft 8kts
17-Sep-20 14:05 34.210949 -118.358702 348 729ft 11kts
17-Sep-20 14:06 34.211499 -118.358975 315 729ft 0kts
17-Sep-20 14:07 34.212165 -118.360350 228 729ft 6kts
17-Sep-20 14:08 34.198379 -118.356609 166 731ft 157kts
17-Sep-20 14:09 34.152277 -118.359334 216 3126ft 196kts
17-Sep-20 14:10 34.104978 -118.416274 243 4926ft 269kts
17-Sep-20 14:11 34.136429 -118.487735 347 8022ft 287kts
17-Sep-20 14:12 34.218042 -118.500399 352 10794ft 308kts
17-Sep-20 14:13 34.307125 -118.512905 352 12491ft 346kts
17-Sep-20 14:14 34.396750 -118.492554 46 12959ft 341kts
17-Sep-20 14:15 34.441660 -118.389251 65 15329ft 354kts
17-Sep-20 14:16 34.500450 -118.292980 38 17773ft 366kts
17-Sep-20 14:17 34.581824 -118.213847 38 19050ft 378kts
17-Sep-20 14:18 34.659034 -118.127699 58 19056ft 379kts
17-Sep-20 14:19 34.686287 -118.003939 78 19907ft 383kts
17-Sep-20 14:20 34.697830 -117.873026 86 21998ft 398kts
17-Sep-20 14:21 34.705698 -117.736693 87 23845ft 411kts
17-Sep-20 14:22 34.710961 -117.595635 88 25508ft 424kts
17-Sep-20 14:23 34.728344 -117.452068 72 27045ft 437kts
17-Sep-20 14:24 34.766755 -117.309635 72 28367ft 449kts
17-Sep-20 14:25 34.805499 -117.162789 72 29569ft 460kts
17-Sep-20 14:26 34.845489 -117.013322 72 30699ft 469kts
17-Sep-20 14:27 34.885274 -116.860650 72 31716ft 477kts
17-Sep-20 14:28 34.936021 -116.710256 54 32642ft 484kts
17-Sep-20 14:29 35.025184 -116.587968 45 33744ft 483kts
17-Sep-20 14:30 35.116788 -116.467431 45 34925ft 481kts
17-Sep-20 14:31 35.207500 -116.347735 45 35962ft 481kts
17-Sep-20 14:32 35.298240 -116.227224 45 36979ft 480kts
17-Sep-20 14:33 35.390165 -116.104511 45 37026ft 496kts
17-Sep-20 14:34 35.484699 -115.978250 45 37026ft 504kts
17-Sep-20 14:35 35.578905 -115.851208 45 37028ft 505kts
17-Sep-20 14:36 35.674097 -115.721719 46 37031ft 513kts
17-Sep-20 14:37 35.769357 -115.590351 46 37032ft 515kts
17-Sep-20 14:38 35.864716 -115.458479 46 37038ft 514kts
17-Sep-20 14:39 35.960098 -115.327266 46 37044ft 513kts
17-Sep-20 14:40 36.054900 -115.195056 46 37032ft 515kts
17-Sep-20 14:41 36.158472 -115.074531 37 37010ft 511kts
17-Sep-20 14:42 36.266268 -114.959595 38 36982ft 511kts
17-Sep-20 14:43 36.373097 -114.843649 38 36985ft 510kts
17-Sep-20 14:44 36.479917 -114.727436 38 36992ft 509kts
17-Sep-20 14:45 36.586141 -114.611398 38 36999ft 509kts
17-Sep-20 14:47 36.692309 -114.494682 37 37019ft 508kts
17-Sep-20 14:48 36.808647 -114.397026 28 37040ft 504kts
17-Sep-20 14:49 36.927462 -114.303782 28 37051ft 504kts
17-Sep-20 14:50 37.046408 -114.210179 28 37078ft 506kts
17-Sep-20 14:51 37.165482 -114.116177 28 37088ft 506kts
17-Sep-20 14:52 37.284879 -114.021343 28 37093ft 507kts
17-Sep-20 14:53 37.403770 -113.926527 28 37105ft 504kts
17-Sep-20 14:54 37.522057 -113.831830 28 37126ft 505kts
17-Sep-20 14:55 37.640751 -113.736443 28 37156ft 505kts
17-Sep-20 14:56 37.759354 -113.641020 28 37211ft 506kts
17-Sep-20 14:57 37.877919 -113.544787 28 37228ft 505kts
17-Sep-20 14:58 37.989662 -113.436269 38 37230ft 510kts
17-Sep-20 14:59 38.095545 -113.315229 38 37228ft 512kts
17-Sep-20 15:00 38.201468 -113.195103 38 37219ft 511kts
17-Sep-20 15:01 38.306932 -113.074048 38 37207ft 509kts
17-Sep-20 15:02 38.423355 -112.977517 18 37201ft 495kts
17-Sep-20 15:03 38.550942 -112.911213 17 37204ft 494kts
17-Sep-20 15:03 38.656647 -112.855118 17 37208ft 494kts
17-Sep-20 15:05 38.802187 -112.776926 18 34322ft 489kts
17-Sep-20 15:06 38.929444 -112.708232 20 30020ft 504kts
17-Sep-20 15:06 39.037969 -112.649639 21 26129ft 510kts
17-Sep-20 15:07 39.166008 -112.580018 22 23121ft 486kts
17-Sep-20 15:09 39.305064 -112.503993 22 21448ft 429kts
17-Sep-20 15:09 39.372761 -112.465449 23 21094ft 386kts
17-Sep-20 15:10 39.397106 -112.451469 22 20844ft 376kts
17-Sep-20 15:11 39.492672 -112.396404 23 19842ft 377kts
17-Sep-20 15:12 39.587674 -112.341554 23 18838ft 369kts
17-Sep-20 15:13 39.680700 -112.287771 23 17838ft 364kts
17-Sep-20 15:14 39.772607 -112.234714 23 16838ft 358kts
17-Sep-20 15:15 39.862991 -112.182073 23 15836ft 353kts
17-Sep-20 15:16 39.951895 -112.130150 23 15030ft 346kts
17-Sep-20 15:17 40.036615 -112.079653 24 15015ft 317kts
17-Sep-20 15:18 40.112145 -112.033917 24 14298ft 302kts
17-Sep-20 15:19 40.176773 -111.994667 24 12648ft 324kts
17-Sep-20 15:20 40.254718 -111.947675 21 11925ft 284kts
17-Sep-20 15:21 40.327313 -111.934544 3 11131ft 256kts
17-Sep-20 15:22 40.397809 -111.929216 356 11029ft 256kts
17-Sep-20 15:23 40.470510 -111.937832 354 10186ft 269kts
17-Sep-20 15:24 40.543264 -111.946302 355 8794ft 273kts
17-Sep-20 15:25 40.614918 -111.954566 355 7393ft 236kts
17-Sep-20 15:26 40.673299 -111.961309 355 6246ft 188kts
17-Sep-20 15:27 40.720347 -111.966798 356 5310ft 157kts
17-Sep-20 15:28 40.763537 -111.971804 354 4463ft 153kts
17-Sep-20 15:29 40.793704 -111.975364 342 4235ft 29kts
17-Sep-20 15:30 40.795456 -111.976723 315 4235ft 0kts
17-Sep-20 15:31 40.795402 -111.977686 204 4235ft 5kts
17-Sep-20 15:32 40.792835 -111.977488 171 4235ft 10kts
17-Sep-20 15:33 40.790257 -111.977168 176 4235ft 8kts
17-Sep-20 15:34 40.789629 -111.979540 253 4235ft 7kts
17-Sep-20 15:35 40.788054 -111.980225 244 4235ft 4kts
17-Sep-20 15:36 40.788117 -111.980865 285 4235ft 0kts
17-Sep-20 15:37 40.788117 -111.980865 285 4235ft 0kts
17-Sep-20 15:38 40.788117 -111.980865 285 4235ft 0kts
17-Sep-20 15:39 40.788117 -111.980865 285 4235ft 0kts

Navigation Log

Ident Type
Flight plan parsing failed, navigation log unavailable